Time;durP1;ratioP1;P1;durP2;ratioP2;P2;SDS_P1;SDS_P2;PMS_P1;PMS_P2;Temp;Humidity;BMP_temperature;BMP_pressure;BME280_temperature;BME280_humidity;BME280_pressure;Samples;Min_cycle;Max_cycle;Signal;HPM_P1;HPM_P2
2022/10/09 00:01:49;;;;;;;5.90;4.30;;;;;;;;;;5046464;28;20025;-42
2022/10/09 00:04:14;;;;;;;5.30;4.80;;;;;;;;;;5043401;28;20029;-41
2022/10/09 00:06:39;;;;;;;4.97;4.47;;;;;;;;;;5046691;28;20020;-40
2022/10/09 00:09:05;;;;;;;4.90;4.50;;;;;;;;;;5047114;28;20025;-42
2022/10/09 00:11:32;;;;;;;4.97;4.57;;;;;;;;;;5047345;28;20048;-41
2022/10/09 00:13:58;;;;;;;6.60;4.90;;;;;;;;;;5046924;28;20135;-42
2022/10/09 00:16:25;;;;;;;7.15;4.60;;;;;;;;;;5048458;28;20107;-42
2022/10/09 00:18:51;;;;;;;4.82;4.38;;;;;;;;;;5045809;28;20431;-41
2022/10/09 00:21:31;;;;;;;5.18;4.32;;;;;;;;;;5035076;28;20066;-41
2022/10/09 00:23:59;;;;;;;5.63;4.85;;;;;;;;;;5046856;28;20037;-41
2022/10/09 00:26:25;;;;;;;5.90;4.43;;;;;;;;;;5045627;28;20791;-41
2022/10/09 00:28:50;;;;;;;5.28;4.78;;;;;;;;;;5046166;28;20482;-41
2022/10/09 00:31:16;;;;;;;7.10;5.10;;;;;;;;;;5047093;28;20040;-42
2022/10/09 00:33:42;;;;;;;5.28;4.88;;;;;;;;;;5045394;28;20041;-41
2022/10/09 00:36:14;;;;;;;5.30;4.90;;;;;;;;;;5047422;28;20025;-41
2022/10/09 00:38:39;;;;;;;;;;;;;;;;;;5046064;28;20068;-41
2022/10/09 00:41:05;;;;;;;6.30;4.78;;;;;;;;;;5043507;28;19968;-41
2022/10/09 00:43:46;;;;;;;6.68;4.00;;;;;;;;;;5046818;28;20048;-41
2022/10/09 00:46:30;;;;;;;4.78;4.38;;;;;;;;;;5047016;28;20112;-41
2022/10/09 00:49:21;;;;;;;8.90;4.43;;;;;;;;;;5044866;28;20039;-41
2022/10/09 00:51:48;;;;;;;5.25;4.70;;;;;;;;;;5038444;28;20632;-41
2022/10/09 00:54:18;;;;;;;9.30;4.97;;;;;;;;;;5046342;28;20432;-42
2022/10/09 00:56:44;;;;;;;6.53;4.53;;;;;;;;;;5043000;28;20091;-41
2022/10/09 00:59:10;;;;;;;6.47;5.43;;;;;;;;;;5046125;28;20021;-42
2022/10/09 01:01:37;;;;;;;5.57;4.82;;;;;;;;;;5047377;28;20041;-41
2022/10/09 01:04:02;;;;;;;5.03;4.53;;;;;;;;;;5046196;28;20055;-42
2022/10/09 01:06:42;;;;;;;7.22;5.20;;;;;;;;;;5045292;28;20024;-41
2022/10/09 01:09:15;;;;;;;5.40;4.90;;;;;;;;;;5042204;28;20056;-41
2022/10/09 01:11:52;;;;;;;8.85;5.20;;;;;;;;;;5042573;28;20021;-40
2022/10/09 01:14:28;;;;;;;8.65;5.20;;;;;;;;;;5046959;28;20385;-42
2022/10/09 01:17:35;;;;;;;7.20;5.45;;;;;;;;;;5045559;28;20081;-41
2022/10/09 01:20:24;;;;;;;8.90;5.20;;;;;;;;;;4966159;28;20035;-41
2022/10/09 01:23:02;;;;;;;6.05;5.30;;;;;;;;;;4965160;28;20051;-41
2022/10/09 01:25:43;;;;;;;7.55;5.28;;;;;;;;;;4965649;28;20046;-41
2022/10/09 01:28:10;;;;;;;8.20;5.43;;;;;;;;;;4964191;28;20062;-41
2022/10/09 01:30:36;;;;;;;5.82;5.18;;;;;;;;;;4966181;28;20351;-41
2022/10/09 01:33:02;;;;;;;5.38;4.88;;;;;;;;;;4964320;28;20039;-41
2022/10/09 01:35:29;;;;;;;7.50;5.10;;;;;;;;;;4966361;28;20038;-42
2022/10/09 01:37:55;;;;;;;5.97;5.22;;;;;;;;;;4950804;28;20143;-42
2022/10/09 01:40:23;;;;;;;5.88;5.00;;;;;;;;;;4966812;28;20093;-41
2022/10/09 01:42:48;;;;;;;9.38;5.35;;;;;;;;;;4965751;28;20066;-42
2022/10/09 01:45:14;;;;;;;5.72;5.22;;;;;;;;;;4967970;28;20488;-41
2022/10/09 01:47:40;;;;;;;6.10;5.15;;;;;;;;;;4965202;28;20499;-42
2022/10/09 01:50:24;;;;;;;5.65;5.05;;;;;;;;;;4966639;28;20130;-41
2022/10/09 01:52:59;;;;;;;10.07;5.18;;;;;;;;;;4965026;28;20086;-41
2022/10/09 01:55:44;;;;;;;6.25;5.18;;;;;;;;;;5045045;28;20416;-40
2022/10/09 01:58:29;;;;;;;7.28;5.28;;;;;;;;;;5042970;28;20041;-41
2022/10/09 02:01:01;;;;;;;6.53;5.38;;;;;;;;;;5041063;28;20029;-41
2022/10/09 02:03:27;;;;;;;;;;;;;;;;;;5044093;28;20040;-41
2022/10/09 02:05:54;;;;;;;8.50;5.00;;;;;;;;;;5045603;28;19925;-42
2022/10/09 02:08:22;;;;;;;6.43;5.15;;;;;;;;;;5045544;28;20508;-41
2022/10/09 02:10:51;;;;;;;6.03;5.10;;;;;;;;;;5046267;28;20381;-42
2022/10/09 02:13:17;;;;;;;8.55;5.50;;;;;;;;;;5045896;28;20044;-41
2022/10/09 02:16:16;;;;;;;6.03;5.43;;;;;;;;;;5045042;28;20037;-42
2022/10/09 02:19:10;;;;;;;6.63;5.95;;;;;;;;;;5043498;28;20045;-41
2022/10/09 02:21:46;;;;;;;7.03;5.47;;;;;;;;;;4984925;28;20054;-41
2022/10/09 02:24:15;;;;;;;7.90;5.85;;;;;;;;;;4984534;28;20038;-42
2022/10/09 02:26:41;;;;;;;5.72;5.22;;;;;;;;;;4988234;28;20042;-41
2022/10/09 02:29:07;;;;;;;5.75;5.25;;;;;;;;;;4984977;28;20038;-41
2022/10/09 02:31:35;;;;;;;8.05;6.05;;;;;;;;;;4985611;28;20508;-42
2022/10/09 02:34:04;;;;;;;6.47;5.72;;;;;;;;;;4984388;28;20046;-41
2022/10/09 02:36:30;;;;;;;7.35;6.13;;;;;;;;;;4981152;28;20085;-41
2022/10/09 02:38:56;;;;;;;10.55;6.95;;;;;;;;;;4985901;28;20038;-41
2022/10/09 02:41:22;;;;;;;8.85;7.15;;;;;;;;;;4987513;28;20066;-41
2022/10/09 02:43:48;;;;;;;8.35;7.47;;;;;;;;;;4987407;28;20092;-41
2022/10/09 02:46:14;;;;;;;8.82;6.80;;;;;;;;;;4990203;28;20129;-41
2022/10/09 02:48:39;;;;;;;12.73;7.18;;;;;;;;;;4985709;28;20186;-41
2022/10/09 02:51:05;;;;;;;10.55;7.20;;;;;;;;;;4987408;28;20037;-41
2022/10/09 02:53:30;;;;;;;9.48;6.30;;;;;;;;;;4990985;28;20057;-41
2022/10/09 02:55:56;;;;;;;9.05;6.47;;;;;;;;;;4988906;28;20053;-41
2022/10/09 02:58:21;;;;;;;9.20;6.93;;;;;;;;;;5009882;28;20128;-41
2022/10/09 03:00:51;;;;;;;8.50;7.18;;;;;;;;;;5046526;28;20155;-41
2022/10/09 03:03:17;;;;;;;7.70;6.90;;;;;;;;;;5047218;28;20108;-42
2022/10/09 03:05:42;;;;;;;8.02;6.47;;;;;;;;;;5050224;28;20139;-42
2022/10/09 03:08:08;;;;;;;9.48;6.70;;;;;;;;;;5045170;28;20509;-41
2022/10/09 03:10:36;;;;;;;9.13;6.75;;;;;;;;;;5049118;28;20547;-41
2022/10/09 03:13:01;;;;;;;10.98;7.15;;;;;;;;;;5047834;28;20056;-42
2022/10/09 03:15:26;;;;;;;12.65;5.80;;;;;;;;;;5047748;28;20377;-41
2022/10/09 03:17:52;;;;;;;9.02;7.05;;;;;;;;;;5047862;28;20190;-41
2022/10/09 03:20:17;;;;;;;7.95;7.25;;;;;;;;;;5049520;28;20677;-41
2022/10/09 03:22:42;;;;;;;8.30;6.90;;;;;;;;;;5043686;28;20047;-41
2022/10/09 03:25:08;;;;;;;8.48;6.40;;;;;;;;;;5045915;28;20456;-41
2022/10/09 03:27:34;;;;;;;9.38;7.07;;;;;;;;;;5047356;28;20409;-42
2022/10/09 03:30:00;;;;;;;10.88;8.90;;;;;;;;;;5047358;28;20350;-41
2022/10/09 03:32:25;;;;;;;8.95;8.13;;;;;;;;;;5043940;28;20048;-41
2022/10/09 03:34:50;;;;;;;7.30;6.63;;;;;;;;;;5049044;28;20370;-41
2022/10/09 03:37:17;;;;;;;9.30;6.38;;;;;;;;;;5046725;28;20041;-41
2022/10/09 03:39:42;;;;;;;9.32;6.63;;;;;;;;;;5046663;28;20031;-41
2022/10/09 03:42:07;;;;;;;6.50;5.90;;;;;;;;;;5046819;28;20029;-41
2022/10/09 03:44:33;;;;;;;6.82;6.05;;;;;;;;;;5047072;28;20021;-42
2022/10/09 03:46:58;;;;;;;6.35;5.80;;;;;;;;;;5048792;28;20160;-42
2022/10/09 03:49:23;;;;;;;8.43;6.50;;;;;;;;;;5046863;28;20090;-40
2022/10/09 03:51:49;;;;;;;5.93;5.20;;;;;;;;;;5045998;28;20078;-41
2022/10/09 03:54:14;;;;;;;9.93;7.00;;;;;;;;;;5045854;28;20060;-41
2022/10/09 03:56:39;;;;;;;7.30;6.68;;;;;;;;;;5046530;28;20063;-41
2022/10/09 03:59:06;;;;;;;11.65;6.80;;;;;;;;;;5046946;28;20033;-41
2022/10/09 04:01:32;;;;;;;7.25;6.18;;;;;;;;;;5048104;28;20039;-41
2022/10/09 04:03:57;;;;;;;8.65;6.43;;;;;;;;;;5047806;28;20037;-41
2022/10/09 04:06:22;;;;;;;11.32;6.50;;;;;;;;;;5043818;28;20049;-41
2022/10/09 04:08:48;;;;;;;7.05;6.35;;;;;;;;;;5047983;28;20059;-41
2022/10/09 04:11:13;;;;;;;7.28;6.13;;;;;;;;;;5047332;28;20045;-42
2022/10/09 04:13:38;;;;;;;9.02;7.28;;;;;;;;;;5046632;28;20033;-41
2022/10/09 04:16:04;;;;;;;10.40;6.65;;;;;;;;;;5048191;28;20091;-41
2022/10/09 04:18:29;;;;;;;8.05;6.43;;;;;;;;;;5044997;28;20127;-42
2022/10/09 04:20:55;;;;;;;10.20;7.97;;;;;;;;;;5044140;28;20029;-42
2022/10/09 04:23:23;;;;;;;13.15;10.32;;;;;;;;;;5048808;28;20032;-41
2022/10/09 04:25:57;;;;;;;15.63;13.18;;;;;;;;;;5046853;28;20433;-41
2022/10/09 04:28:23;;;;;;;14.98;11.18;;;;;;;;;;5044498;28;21740;-41
2022/10/09 04:30:48;;;;;;;14.95;10.63;;;;;;;;;;5046769;28;20037;-41
2022/10/09 04:33:14;;;;;;;12.15;9.55;;;;;;;;;;5042599;28;20051;-41
2022/10/09 04:35:49;;;;;;;11.88;10.23;;;;;;;;;;5047769;28;20032;-42
2022/10/09 04:38:15;;;;;;;12.70;10.30;;;;;;;;;;5045586;28;20053;-41
2022/10/09 04:40:40;;;;;;;16.02;11.82;;;;;;;;;;5046845;28;20385;-41
2022/10/09 04:43:06;;;;;;;19.85;11.65;;;;;;;;;;5042207;28;20068;-41
2022/10/09 04:45:32;;;;;;;15.10;12.63;;;;;;;;;;5047564;28;20033;-41
2022/10/09 04:47:57;;;;;;;17.08;13.13;;;;;;;;;;5045535;28;20029;-41
2022/10/09 04:50:22;;;;;;;15.07;13.48;;;;;;;;;;5046840;28;20047;-41
2022/10/09 04:52:48;;;;;;;16.38;12.77;;;;;;;;;;5047024;28;20037;-41
2022/10/09 04:55:13;;;;;;;15.50;11.63;;;;;;;;;;5044916;28;20048;-41
2022/10/09 04:57:39;;;;;;;12.82;11.32;;;;;;;;;;5045993;28;20037;-41
2022/10/09 05:00:04;;;;;;;16.17;12.90;;;;;;;;;;5044626;28;20045;-41
2022/10/09 05:02:30;;;;;;;15.02;13.43;;;;;;;;;;5044418;28;20512;-42
2022/10/09 05:04:56;;;;;;;17.25;12.77;;;;;;;;;;5046565;28;20025;-41
2022/10/09 05:07:22;;;;;;;15.95;12.10;;;;;;;;;;5046710;28;20112;-41
2022/10/09 05:09:47;;;;;;;13.02;11.65;;;;;;;;;;5048494;28;20040;-41
2022/10/09 05:12:12;;;;;;;14.00;12.50;;;;;;;;;;5046730;28;20053;-41
2022/10/09 05:14:38;;;;;;;14.73;11.93;;;;;;;;;;5044088;28;20033;-41
2022/10/09 05:17:04;;;;;;;14.75;11.98;;;;;;;;;;5044450;28;20079;-42
2022/10/09 05:19:31;;;;;;;14.43;11.73;;;;;;;;;;5046392;28;20363;-41
2022/10/09 05:21:57;;;;;;;17.55;12.82;;;;;;;;;;5035544;28;20029;-41
2022/10/09 05:24:22;;;;;;;17.42;11.75;;;;;;;;;;5041992;28;20088;-41
2022/10/09 05:26:47;;;;;;;14.27;10.63;;;;;;;;;;5045502;28;20040;-41
2022/10/09 05:29:13;;;;;;;12.43;10.35;;;;;;;;;;5048097;28;20033;-42
2022/10/09 05:31:38;;;;;;;11.82;10.65;;;;;;;;;;5042653;28;20661;-41
2022/10/09 05:34:04;;;;;;;10.93;9.88;;;;;;;;;;5041538;28;23218;-41
2022/10/09 05:36:29;;;;;;;11.75;9.90;;;;;;;;;;5046604;28;20032;-41
2022/10/09 05:38:56;;;;;;;10.98;9.82;;;;;;;;;;5045655;28;20041;-41
2022/10/09 05:41:21;;;;;;;13.30;10.77;;;;;;;;;;5045563;28;20059;-41
2022/10/09 05:43:48;;;;;;;13.88;10.00;;;;;;;;;;5043792;28;20045;-42
2022/10/09 05:46:23;;;;;;;15.70;11.05;;;;;;;;;;5042290;28;20023;-41
2022/10/09 05:48:55;;;;;;;14.05;11.30;;;;;;;;;;5044865;28;20064;-44
2022/10/09 05:51:29;;;;;;;21.80;13.52;;;;;;;;;;5046031;28;20380;-42
2022/10/09 05:53:55;;;;;;;17.15;13.43;;;;;;;;;;5046318;28;20040;-42
2022/10/09 05:56:26;;;;;;;15.52;13.85;;;;;;;;;;5045404;28;20029;-42
2022/10/09 05:58:53;;;;;;;15.30;13.70;;;;;;;;;;5048041;28;20060;-43
2022/10/09 06:01:19;;;;;;;17.50;13.88;;;;;;;;;;5046834;28;20025;-42
2022/10/09 06:03:49;;;;;;;17.10;14.02;;;;;;;;;;5045056;28;20044;-45
2022/10/09 06:06:16;;;;;;;20.67;17.40;;;;;;;;;;5044547;28;20013;-45
2022/10/09 06:08:41;;;;;;;18.30;15.50;;;;;;;;;;5045032;28;20056;-42
2022/10/09 06:11:08;;;;;;;17.60;15.23;;;;;;;;;;5046197;28;20119;-43
2022/10/09 06:13:33;;;;;;;22.35;15.63;;;;;;;;;;5045347;28;20069;-43
2022/10/09 06:15:59;;;;;;;19.23;14.77;;;;;;;;;;5048183;28;20044;-43
2022/10/09 06:18:24;;;;;;;21.45;15.93;;;;;;;;;;5045710;28;20036;-42
2022/10/09 06:20:58;;;;;;;17.27;15.32;;;;;;;;;;5049676;28;20025;-42
2022/10/09 06:23:23;;;;;;;17.83;14.88;;;;;;;;;;5051152;28;20072;-42
2022/10/09 06:25:54;;;;;;;20.42;15.57;;;;;;;;;;5050348;28;20053;-41
2022/10/09 06:28:20;;;;;;;17.65;15.00;;;;;;;;;;5049570;28;20037;-42
2022/10/09 06:30:45;;;;;;;17.98;15.93;;;;;;;;;;5049839;28;20025;-42
2022/10/09 06:33:11;;;;;;;16.75;14.98;;;;;;;;;;5050641;28;20067;-42
2022/10/09 06:35:36;;;;;;;20.00;15.35;;;;;;;;;;5050861;28;20025;-42
2022/10/09 06:38:01;;;;;;;17.35;15.57;;;;;;;;;;5049124;28;20379;-42
2022/10/09 06:40:26;;;;;;;16.58;14.75;;;;;;;;;;5050154;28;20062;-42
2022/10/09 06:42:52;;;;;;;23.23;15.60;;;;;;;;;;5050623;28;20037;-42
2022/10/09 06:45:17;;;;;;;18.50;16.17;;;;;;;;;;5051001;28;20071;-42
2022/10/09 06:47:43;;;;;;;19.77;16.48;;;;;;;;;;5049974;28;20037;-42
2022/10/09 06:50:08;;;;;;;20.80;16.63;;;;;;;;;;5049349;28;20048;-43
2022/10/09 06:52:34;;;;;;;25.15;17.05;;;;;;;;;;5046590;28;20044;-42
2022/10/09 06:54:59;;;;;;;23.88;17.50;;;;;;;;;;5043760;28;20065;-43
2022/10/09 06:57:24;;;;;;;23.60;17.17;;;;;;;;;;5050186;28;20095;-41
2022/10/09 06:59:50;;;;;;;20.80;17.50;;;;;;;;;;5049982;28;20090;-42
2022/10/09 07:02:16;;;;;;;21.77;19.17;;;;;;;;;;5049666;28;20400;-42
2022/10/09 07:04:42;;;;;;;24.42;17.83;;;;;;;;;;5049179;28;20047;-42
2022/10/09 07:07:07;;;;;;;27.65;18.17;;;;;;;;;;5047258;28;20041;-42
2022/10/09 07:09:33;;;;;;;20.95;17.65;;;;;;;;;;5048889;28;20037;-42
2022/10/09 07:11:58;;;;;;;23.45;18.40;;;;;;;;;;5048546;28;21948;-43
2022/10/09 07:14:23;;;;;;;18.65;16.73;;;;;;;;;;5050247;28;20024;-42
2022/10/09 07:16:50;;;;;;;23.65;17.60;;;;;;;;;;5047959;28;20090;-42
2022/10/09 07:19:17;;;;;;;27.75;17.52;;;;;;;;;;5051280;28;20025;-43
2022/10/09 07:21:47;;;;;;;25.60;17.13;;;;;;;;;;5049385;28;20040;-42
2022/10/09 07:24:13;;;;;;;20.20;17.65;;;;;;;;;;5048292;28;20072;-42
2022/10/09 07:26:42;;;;;;;19.52;16.83;;;;;;;;;;5048217;28;20033;-42
2022/10/09 07:29:09;;;;;;;19.40;17.00;;;;;;;;;;5042086;28;20120;-42
2022/10/09 07:31:35;;;;;;;19.63;16.92;;;;;;;;;;5047439;28;20032;-42
2022/10/09 07:34:01;;;;;;;20.48;17.48;;;;;;;;;;5048213;28;20063;-42
2022/10/09 07:36:27;;;;;;;18.48;16.15;;;;;;;;;;5046827;28;20066;-43
2022/10/09 07:38:55;;;;;;;19.95;16.00;;;;;;;;;;5050026;28;20123;-44
2022/10/09 07:41:22;;;;;;;15.90;14.25;;;;;;;;;;5045408;28;20076;-42
2022/10/09 07:43:48;;;;;;;18.27;14.23;;;;;;;;;;5036187;28;20064;-42
2022/10/09 07:46:15;;;;;;;21.00;14.45;;;;;;;;;;5043679;28;20072;-42
2022/10/09 07:48:41;;;;;;;12.63;10.38;;;;;;;;;;5044976;28;20056;-45
2022/10/09 07:51:09;;;;;;;9.52;8.57;;;;;;;;;;5042773;28;20032;-43
2022/10/09 07:53:34;;;;;;;15.93;8.07;;;;;;;;;;5044235;28;20095;-42
2022/10/09 07:55:59;;;;;;;7.38;6.68;;;;;;;;;;5046390;28;20057;-42
2022/10/09 07:58:25;;;;;;;9.70;6.70;;;;;;;;;;5047270;28;20087;-42
2022/10/09 08:00:50;;;;;;;6.05;5.50;;;;;;;;;;5042334;28;20354;-43
2022/10/09 08:03:15;;;;;;;11.80;5.68;;;;;;;;;;5042984;28;20036;-43
2022/10/09 08:05:41;;;;;;;7.32;5.03;;;;;;;;;;5040177;28;20032;-42
2022/10/09 08:08:06;;;;;;;6.28;4.63;;;;;;;;;;5044416;28;20037;-42
2022/10/09 08:10:32;;;;;;;5.63;4.50;;;;;;;;;;5043623;28;20132;-42
2022/10/09 08:12:58;;;;;;;6.35;4.20;;;;;;;;;;5047688;28;20079;-42
2022/10/09 08:15:24;;;;;;;6.70;4.38;;;;;;;;;;5045310;28;20516;-44
2022/10/09 08:17:53;;;;;;;6.00;4.22;;;;;;;;;;5046413;28;20044;-42
2022/10/09 08:20:18;;;;;;;4.15;3.70;;;;;;;;;;5043547;28;20080;-42
2022/10/09 08:22:44;;;;;;;4.13;3.72;;;;;;;;;;5040378;28;20053;-43
2022/10/09 08:25:09;;;;;;;4.03;3.63;;;;;;;;;;5046394;28;20037;-44
2022/10/09 08:27:34;;;;;;;4.00;3.70;;;;;;;;;;5042287;28;20484;-42
2022/10/09 08:30:00;;;;;;;5.47;3.53;;;;;;;;;;5048266;28;20021;-45
2022/10/09 08:32:25;;;;;;;5.38;3.20;;;;;;;;;;5041437;28;20107;-43
2022/10/09 08:34:51;;;;;;;6.43;3.05;;;;;;;;;;5045073;28;20031;-42
2022/10/09 08:37:17;;;;;;;3.20;2.83;;;;;;;;;;5045691;28;20045;-43
2022/10/09 08:39:42;;;;;;;4.25;3.40;;;;;;;;;;5045282;28;20507;-42
2022/10/09 08:42:23;;;;;;;3.40;2.97;;;;;;;;;;5043937;28;20052;-42
2022/10/09 08:44:49;;;;;;;4.70;3.00;;;;;;;;;;5042951;28;20039;-42
2022/10/09 08:47:51;;;;;;;5.43;3.10;;;;;;;;;;5043876;28;20036;-43
2022/10/09 08:50:25;;;;;;;5.43;3.08;;;;;;;;;;4961356;28;20038;-44
2022/10/09 08:53:01;;;;;;;5.38;2.88;;;;;;;;;;4959174;28;20448;-43
2022/10/09 08:55:57;;;;;;;3.17;2.88;;;;;;;;;;4957844;28;20547;-42
2022/10/09 08:58:26;;;;;;;2.80;2.58;;;;;;;;;;4942841;28;20054;-42
2022/10/09 09:01:03;;;;;;;4.22;2.55;;;;;;;;;;4963378;28;20113;-42
2022/10/09 09:03:51;;;;;;;3.10;2.90;;;;;;;;;;4966707;28;20130;-42
2022/10/09 09:06:34;;;;;;;4.22;2.80;;;;;;;;;;4963439;28;20037;-43
2022/10/09 09:09:18;;;;;;;4.15;2.67;;;;;;;;;;4964153;28;20475;-43
2022/10/09 09:12:16;;;;;;;4.97;2.33;;;;;;;;;;4964125;28;20047;-46
2022/10/09 09:15:00;;;;;;;3.35;2.58;;;;;;;;;;4963956;28;20035;-43
2022/10/09 09:17:34;;;;;;;3.55;2.78;;;;;;;;;;4963007;28;20043;-42
2022/10/09 09:20:15;;;;;;;3.38;2.55;;;;;;;;;;4967168;28;20038;-43
2022/10/09 09:22:46;;;;;;;3.13;2.67;;;;;;;;;;4964593;28;20051;-43
2022/10/09 09:25:24;;;;;;;2.83;2.55;;;;;;;;;;5035400;28;20064;-42
2022/10/09 09:27:57;;;;;;;5.47;2.63;;;;;;;;;;5043083;28;20037;-42
2022/10/09 09:30:28;;;;;;;5.50;2.60;;;;;;;;;;5042672;28;20025;-44
2022/10/09 09:33:04;;;;;;;4.00;2.53;;;;;;;;;;5044915;28;20037;-43
2022/10/09 09:35:48;;;;;;;3.40;2.63;;;;;;;;;;5044956;28;20443;-44
2022/10/09 09:38:14;;;;;;;3.10;2.38;;;;;;;;;;5046284;28;20393;-45
2022/10/09 09:40:42;;;;;;;7.22;2.63;;;;;;;;;;5046190;28;20133;-43
2022/10/09 09:43:22;;;;;;;4.45;2.60;;;;;;;;;;5044754;28;20033;-43
2022/10/09 09:45:52;;;;;;;2.50;1.90;;;;;;;;;;5044965;28;20025;-43
2022/10/09 09:48:30;;;;;;;4.10;2.05;;;;;;;;;;5045477;28;20037;-42
2022/10/09 09:50:55;;;;;;;2.35;1.85;;;;;;;;;;5044870;28;20025;-43
2022/10/09 09:53:31;;;;;;;2.47;1.90;;;;;;;;;;5043306;28;20076;-42
2022/10/09 09:55:57;;;;;;;7.72;2.33;;;;;;;;;;5042006;28;20045;-43
2022/10/09 09:58:30;;;;;;;2.80;1.80;;;;;;;;;;5045360;28;20112;-46
2022/10/09 10:01:00;;;;;;;4.13;1.90;;;;;;;;;;5046423;28;20051;-42
2022/10/09 10:03:26;;;;;;;2.00;1.83;;;;;;;;;;5048212;28;20128;-42
2022/10/09 10:05:51;;;;;;;3.92;2.20;;;;;;;;;;5042761;28;20096;-42
2022/10/09 10:08:24;;;;;;;2.45;2.00;;;;;;;;;;5040955;28;20067;-42
2022/10/09 10:10:52;;;;;;;1.70;1.60;;;;;;;;;;5043290;28;20362;-42
2022/10/09 10:13:45;;;;;;;2.28;1.92;;;;;;;;;;5042776;28;20095;-42
2022/10/09 10:16:19;;;;;;;;;;;;;;;;;;5048577;28;20028;-42
2022/10/09 10:18:44;;;;;;;1.80;1.70;;;;;;;;;;5044114;28;19921;-43
2022/10/09 10:21:18;;;;;;;2.75;1.75;;;;;;;;;;5044443;28;20024;-46
2022/10/09 10:24:07;;;;;;;3.00;2.00;;;;;;;;;;5043158;28;20087;-43
2022/10/09 10:26:42;;;;;;;2.13;1.95;;;;;;;;;;5045372;28;20063;-42
2022/10/09 10:29:42;;;;;;;3.15;1.90;;;;;;;;;;5040226;28;20037;-43
2022/10/09 10:32:45;;;;;;;2.95;1.95;;;;;;;;;;5042757;28;20041;-44
2022/10/09 10:35:17;;;;;;;1.85;1.70;;;;;;;;;;5043636;28;20371;-42
2022/10/09 10:37:57;;;;;;;1.77;1.67;;;;;;;;;;5044249;28;20040;-44
2022/10/09 10:40:31;;;;;;;1.80;1.70;;;;;;;;;;5040807;28;20045;-42
2022/10/09 10:43:12;;;;;;;3.38;2.10;;;;;;;;;;5045354;28;20057;-42
2022/10/09 10:46:04;;;;;;;3.72;1.80;;;;;;;;;;5043985;28;20036;-44
2022/10/09 10:48:32;;;;;;;;;;;;;;;;;;5042956;28;20041;-44
2022/10/09 10:51:12;;;;;;;1.58;1.48;;;;;;;;;;5043980;28;20278;-42
2022/10/09 10:54:02;;;;;;;1.58;1.48;;;;;;;;;;5041645;28;20520;-42
2022/10/09 10:56:37;;;;;;;1.70;1.60;;;;;;;;;;5043503;28;20041;-43
2022/10/09 10:59:25;;;;;;;2.42;2.22;;;;;;;;;;5045438;28;20056;-42
2022/10/09 11:02:17;;;;;;;3.75;2.08;;;;;;;;;;5047236;28;20510;-46
2022/10/09 11:04:52;;;;;;;2.00;1.80;;;;;;;;;;5046095;28;20041;-42
2022/10/09 11:07:28;;;;;;;2.88;1.60;;;;;;;;;;5046108;28;20116;-42
2022/10/09 11:10:15;;;;;;;4.70;2.10;;;;;;;;;;5043779;28;20033;-43
2022/10/09 11:12:56;;;;;;;1.70;1.60;;;;;;;;;;5043387;28;20045;-43
2022/10/09 11:16:00;;;;;;;1.70;1.60;;;;;;;;;;5044525;28;20028;-41
2022/10/09 11:18:47;;;;;;;2.25;1.80;;;;;;;;;;5037329;28;20374;-42
2022/10/09 11:21:27;;;;;;;1.60;1.50;;;;;;;;;;5039974;28;20409;-42
2022/10/09 11:24:16;;;;;;;1.85;1.70;;;;;;;;;;5042593;28;20045;-42
2022/10/09 11:27:05;;;;;;;1.52;1.42;;;;;;;;;;5045770;28;20044;-42
2022/10/09 11:29:49;;;;;;;1.90;1.80;;;;;;;;;;5041356;28;20493;-42
2022/10/09 11:32:42;;;;;;;6.55;5.90;;;;;;;;;;5038173;28;22036;-42
2022/10/09 11:35:10;;;;;;;2.40;2.20;;;;;;;;;;5036901;28;20035;-43
2022/10/09 11:37:39;;;;;;;2.35;1.83;;;;;;;;;;5043305;28;20100;-42
2022/10/09 11:40:20;;;;;;;1.70;1.60;;;;;;;;;;5047282;28;20049;-42
2022/10/09 11:42:57;;;;;;;1.60;1.50;;;;;;;;;;5037924;28;20190;-42
2022/10/09 11:45:47;;;;;;;2.65;2.45;;;;;;;;;;5037990;28;20775;-43
2022/10/09 11:48:43;;;;;;;1.92;1.77;;;;;;;;;;4962971;28;20049;-43
2022/10/09 11:51:17;;;;;;;2.55;1.40;;;;;;;;;;4979922;28;20125;-42
2022/10/09 11:53:44;;;;;;;1.67;1.25;;;;;;;;;;4978901;28;20137;-41
2022/10/09 11:56:38;;;;;;;2.30;1.65;;;;;;;;;;4980223;28;20061;-44
2022/10/09 11:59:05;;;;;;;1.98;1.63;;;;;;;;;;4960715;28;20139;-43
2022/10/09 12:01:35;;;;;;;2.60;1.40;;;;;;;;;;4976182;28;20070;-42
2022/10/09 12:04:19;;;;;;;1.70;1.60;;;;;;;;;;4983582;28;20046;-44
2022/10/09 12:06:46;;;;;;;1.75;1.60;;;;;;;;;;4981411;28;20066;-42
2022/10/09 12:09:21;;;;;;;1.55;1.45;;;;;;;;;;4974395;28;20053;-44
2022/10/09 12:11:58;;;;;;;2.78;1.45;;;;;;;;;;4980130;28;20042;-42
2022/10/09 12:14:25;;;;;;;1.58;1.48;;;;;;;;;;4979261;28;20442;-42
2022/10/09 12:16:51;;;;;;;1.67;1.58;;;;;;;;;;4977712;28;20108;-44
2022/10/09 12:19:22;;;;;;;1.17;1.17;;;;;;;;;;4979248;28;20428;-42
2022/10/09 12:21:52;;;;;;;2.22;1.38;;;;;;;;;;4979663;28;20034;-42
2022/10/09 12:24:27;;;;;;;4.90;1.42;;;;;;;;;;4978059;28;20031;-42
2022/10/09 12:26:55;;;;;;;1.40;1.25;;;;;;;;;;5043722;28;20025;-44
2022/10/09 12:29:27;;;;;;;2.05;1.80;;;;;;;;;;5046347;28;20074;-42
2022/10/09 12:31:58;;;;;;;1.65;1.50;;;;;;;;;;5042689;28;20552;-42
2022/10/09 12:34:29;;;;;;;1.20;1.10;;;;;;;;;;5038207;28;20037;-43
2022/10/09 12:37:16;;;;;;;1.60;1.50;;;;;;;;;;5038629;28;20534;-42
2022/10/09 12:39:42;;;;;;;1.58;1.33;;;;;;;;;;5045293;28;20036;-43
2022/10/09 12:42:16;;;;;;;2.10;1.50;;;;;;;;;;5039563;28;20572;-42
2022/10/09 12:44:43;;;;;;;2.22;1.48;;;;;;;;;;5039593;28;20071;-43
2022/10/09 12:47:25;;;;;;;1.70;1.30;;;;;;;;;;5038771;28;20073;-44
2022/10/09 12:50:13;;;;;;;;;;;;;;;;;;5042301;28;20056;-43
2022/10/09 12:53:07;;;;;;;2.67;1.30;;;;;;;;;;5039435;28;20292;-44
2022/10/09 12:55:39;;;;;;;1.75;1.20;;;;;;;;;;5028458;28;20045;-45
2022/10/09 12:58:12;;;;;;;1.30;1.20;;;;;;;;;;5039507;28;20056;-41
2022/10/09 13:00:39;;;;;;;1.58;1.23;;;;;;;;;;5043865;28;20032;-43
2022/10/09 13:03:04;;;;;;;3.90;1.50;;;;;;;;;;5042377;28;20444;-42
2022/10/09 13:05:41;;;;;;;2.33;1.50;;;;;;;;;;5041848;28;20028;-42
2022/10/09 13:08:32;;;;;;;1.27;1.17;;;;;;;;;;5040351;28;20630;-42
2022/10/09 13:11:20;;;;;;;2.35;1.23;;;;;;;;;;5038223;28;20029;-44
2022/10/09 13:13:51;;;;;;;1.90;1.30;;;;;;;;;;5043405;28;20705;-43
2022/10/09 13:16:16;;;;;;;1.83;1.30;;;;;;;;;;5041798;28;20404;-43
2022/10/09 13:18:42;;;;;;;2.30;1.10;;;;;;;;;;5042539;28;20470;-47
2022/10/09 13:21:23;;;;;;;1.92;1.30;;;;;;;;;;5042937;28;20143;-42
2022/10/09 13:23:49;;;;;;;2.05;1.25;;;;;;;;;;5042701;28;20095;-42
2022/10/09 13:26:26;;;;;;;1.90;1.10;;;;;;;;;;5043260;28;20381;-42
2022/10/09 13:28:54;;;;;;;1.77;1.02;;;;;;;;;;5043668;28;20041;-48
2022/10/09 13:31:20;;;;;;;1.50;1.35;;;;;;;;;;5042369;28;20039;-44
2022/10/09 13:33:46;;;;;;;4.75;1.35;;;;;;;;;;5041058;28;20507;-45
2022/10/09 13:36:12;;;;;;;3.22;1.20;;;;;;;;;;5043036;28;20025;-45
2022/10/09 13:38:38;;;;;;;2.83;1.10;;;;;;;;;;5043366;28;20072;-45
2022/10/09 13:41:03;;;;;;;1.30;1.10;;;;;;;;;;5046913;28;20459;-44
2022/10/09 13:43:29;;;;;;;1.98;1.25;;;;;;;;;;5040932;28;20044;-43
2022/10/09 13:45:55;;;;;;;3.55;1.48;;;;;;;;;;5041737;28;20027;-47
2022/10/09 13:48:21;;;;;;;2.10;1.30;;;;;;;;;;5043486;28;20116;-45
2022/10/09 13:50:46;;;;;;;3.25;1.30;;;;;;;;;;5040768;28;20108;-44
2022/10/09 13:53:11;;;;;;;2.38;1.48;;;;;;;;;;5043321;28;20064;-43
2022/10/09 13:55:37;;;;;;;3.05;1.60;;;;;;;;;;5039408;28;20048;-45
2022/10/09 13:58:03;;;;;;;9.23;2.20;;;;;;;;;;5041371;28;20041;-43
2022/10/09 14:00:28;;;;;;;3.15;2.10;;;;;;;;;;5043403;28;20112;-49
2022/10/09 14:02:53;;;;;;;4.53;1.90;;;;;;;;;;5040472;28;20049;-46
2022/10/09 14:05:20;;;;;;;2.42;2.08;;;;;;;;;;5043543;28;20140;-45
2022/10/09 14:07:46;;;;;;;4.70;1.95;;;;;;;;;;5043602;28;20056;-46
2022/10/09 14:10:11;;;;;;;4.28;2.00;;;;;;;;;;5042250;28;20029;-44
2022/10/09 14:12:36;;;;;;;4.00;2.30;;;;;;;;;;5042740;28;20041;-44
2022/10/09 14:15:02;;;;;;;6.03;1.90;;;;;;;;;;5043971;28;20028;-47
2022/10/09 14:17:27;;;;;;;3.40;1.80;;;;;;;;;;5041381;28;20498;-46
2022/10/09 14:19:53;;;;;;;2.90;1.88;;;;;;;;;;5042897;28;20032;-48
2022/10/09 14:22:18;;;;;;;5.25;1.90;;;;;;;;;;5043559;28;20041;-46
2022/10/09 14:24:43;;;;;;;3.22;2.00;;;;;;;;;;5046707;28;20048;-50
2022/10/09 14:27:09;;;;;;;7.78;2.30;;;;;;;;;;5042285;28;20469;-46
2022/10/09 14:29:36;;;;;;;3.70;1.67;;;;;;;;;;5043534;28;20040;-48
2022/10/09 14:32:03;;;;;;;2.83;2.08;;;;;;;;;;5041379;28;20044;-47
2022/10/09 14:34:28;;;;;;;6.97;1.92;;;;;;;;;;5042683;28;20032;-46
2022/10/09 14:36:53;;;;;;;6.63;2.10;;;;;;;;;;5044302;28;20067;-44
2022/10/09 14:39:19;;;;;;;6.28;1.95;;;;;;;;;;5046962;28;20075;-45
2022/10/09 14:41:44;;;;;;;3.30;2.00;;;;;;;;;;5045118;28;20040;-42
2022/10/09 14:44:10;;;;;;;2.90;1.95;;;;;;;;;;5048326;28;20082;-44
2022/10/09 14:46:37;;;;;;;2.78;1.80;;;;;;;;;;5047088;28;20039;-46
2022/10/09 14:49:06;;;;;;;9.88;2.17;;;;;;;;;;5047582;28;20032;-44
2022/10/09 14:51:34;;;;;;;2.22;1.85;;;;;;;;;;5046167;28;20033;-46
2022/10/09 14:54:00;;;;;;;6.57;2.30;;;;;;;;;;5045642;28;20044;-48
2022/10/09 14:56:26;;;;;;;4.30;2.10;;;;;;;;;;5044447;28;20041;-46
2022/10/09 14:58:52;;;;;;;4.72;1.88;;;;;;;;;;5046954;28;20041;-44